Time;durP1;ratioP1;P1;durP2;ratioP2;P2;SDS_P1;SDS_P2;PMS_P1;PMS_P2;Temp;Humidity;BMP_temperature;BMP_pressure;BME280_temperature;BME280_humidity;BME280_pressure;Samples;Min_cycle;Max_cycle;Signal;HPM_P1;HPM_P2
2022/03/11 00:01:36;;;;;;;7.22;4.00;;;;;14.50;101685.00;;;;5044983;28;20239;-83
2022/03/11 00:04:03;;;;;;;7.00;4.72;;;;;14.50;101685.00;;;;5044847;28;20227;-83
2022/03/11 00:06:30;;;;;;;4.75;3.25;;;;;14.40;101667.00;;;;5051813;28;20199;-84
2022/03/11 00:08:58;;;;;;;5.53;3.60;;;;;14.40;101675.00;;;;5048046;28;20191;-84
2022/03/11 00:11:25;;;;;;;5.30;3.33;;;;;14.40;101676.00;;;;5042219;28;20974;-83
2022/03/11 00:13:53;;;;;;;6.85;4.10;;;;;14.40;101671.00;;;;5041959;28;20199;-83
2022/03/11 00:16:21;;;;;;;5.88;4.10;;;;;14.40;101672.00;;;;5048161;28;20575;-84
2022/03/11 00:18:48;;;;;;;6.97;4.22;;;;;14.40;101671.00;;;;5049184;28;20211;-83
2022/03/11 00:21:15;;;;;;;6.78;3.35;;;;;14.30;101668.00;;;;5054306;28;20202;-83
2022/03/11 00:23:43;;;;;;;6.65;3.80;;;;;14.30;101665.00;;;;5054805;28;20212;-84
2022/03/11 00:26:11;;;;;;;7.50;4.40;;;;;14.30;101670.00;;;;5048991;28;20226;-83
2022/03/11 00:28:39;;;;;;;6.72;4.72;;;;;14.30;101674.00;;;;5029007;28;20204;-83
2022/03/11 00:31:08;;;;;;;7.07;4.18;;;;;14.30;101670.00;;;;5046685;28;20208;-83
2022/03/11 00:33:35;;;;;;;7.57;4.30;;;;;14.30;101668.00;;;;5048916;28;20195;-83
2022/03/11 00:36:03;;;;;;;7.60;4.60;;;;;14.30;101668.00;;;;5046459;28;20211;-84
2022/03/11 00:38:30;;;;;;;5.90;3.90;;;;;14.30;101661.00;;;;5035523;28;20690;-83
2022/03/11 00:40:58;;;;;;;6.88;4.38;;;;;14.30;101663.00;;;;5045544;28;20200;-83
2022/03/11 00:43:26;;;;;;;7.38;4.32;;;;;14.20;101665.00;;;;5041488;28;20234;-83
2022/03/11 00:45:54;;;;;;;6.72;4.78;;;;;14.20;101663.00;;;;5034361;28;20204;-83
2022/03/11 00:48:22;;;;;;;6.75;4.28;;;;;14.20;101655.00;;;;5030510;28;20200;-83
2022/03/11 00:50:50;;;;;;;7.40;4.82;;;;;14.20;101661.00;;;;5044146;28;20600;-84
2022/03/11 00:53:17;;;;;;;8.20;5.13;;;;;14.20;101659.00;;;;5047110;28;20199;-82
2022/03/11 00:55:44;;;;;;;6.35;4.20;;;;;14.20;101650.00;;;;5048108;28;20608;-82
2022/03/11 00:58:11;;;;;;;6.18;4.30;;;;;14.20;101652.00;;;;5040018;28;20223;-82
2022/03/11 01:00:38;;;;;;;6.72;4.28;;;;;14.10;101651.00;;;;5048831;28;20203;-82
2022/03/11 01:03:06;;;;;;;7.07;3.63;;;;;14.10;101639.00;;;;5048279;28;20219;-83
2022/03/11 01:05:35;;;;;;;6.60;4.53;;;;;14.10;101644.00;;;;5047533;28;20207;-82
2022/03/11 01:08:02;;;;;;;6.57;4.28;;;;;14.10;101644.00;;;;5044483;28;20199;-83
2022/03/11 01:10:30;;;;;;;8.93;4.80;;;;;14.00;101637.00;;;;5047336;28;20199;-82
2022/03/11 01:12:57;;;;;;;6.43;4.47;;;;;14.00;101642.00;;;;5046403;28;20204;-81
2022/03/11 01:15:25;;;;;;;7.47;5.25;;;;;14.00;101643.00;;;;5034591;28;20207;-84
2022/03/11 01:17:52;;;;;;;6.93;4.45;;;;;14.00;101632.00;;;;5048712;28;20195;-84
2022/03/11 01:20:19;;;;;;;7.85;4.75;;;;;14.00;101635.00;;;;5038418;28;20314;-83
2022/03/11 01:22:48;;;;;;;7.32;4.63;;;;;14.00;101629.00;;;;5046320;28;20195;-83
2022/03/11 01:25:15;;;;;;;7.63;4.30;;;;;13.90;101625.00;;;;5046130;28;20215;-83
2022/03/11 01:27:42;;;;;;;8.55;5.20;;;;;13.90;101621.00;;;;5043600;28;20200;-82
2022/03/11 01:30:13;;;;;;;6.75;4.13;;;;;13.90;101619.00;;;;5043589;28;20721;-83
2022/03/11 01:32:40;;;;;;;7.47;4.32;;;;;13.90;101616.00;;;;5042644;28;20201;-83
2022/03/11 01:35:09;;;;;;;6.43;4.10;;;;;13.80;101621.00;;;;5045795;28;20249;-83
2022/03/11 01:37:36;;;;;;;8.55;5.32;;;;;13.80;101619.00;;;;5047302;28;20319;-83
2022/03/11 01:40:05;;;;;;;4.88;4.03;;;;;13.80;101607.00;;;;5038235;28;20196;-83
2022/03/11 01:42:34;;;;;;;5.63;4.00;;;;;13.80;101607.00;;;;5047583;28;20211;-83
2022/03/11 01:45:01;;;;;;;7.32;4.55;;;;;13.80;101599.00;;;;5042864;28;20248;-83
2022/03/11 01:47:29;;;;;;;7.32;5.07;;;;;13.70;101600.00;;;;5042520;28;20669;-84
2022/03/11 01:49:56;;;;;;;6.65;5.00;;;;;13.70;101593.00;;;;5045780;28;20191;-83
2022/03/11 01:52:23;;;;;;;7.38;4.95;;;;;13.70;101586.00;;;;5046345;28;20541;-84
2022/03/11 01:54:52;;;;;;;6.90;4.63;;;;;13.60;101583.00;;;;5046294;28;20198;-83
2022/03/11 01:57:21;;;;;;;6.28;4.38;;;;;13.60;101580.00;;;;5047792;28;20218;-84
2022/03/11 01:59:49;;;;;;;7.75;4.85;;;;;13.60;101574.00;;;;5032090;28;20215;-84
2022/03/11 02:02:17;;;;;;;7.35;4.35;;;;;13.60;101565.00;;;;5043173;28;20189;-83
2022/03/11 02:04:44;;;;;;;6.68;4.47;;;;;13.60;101561.00;;;;5044612;28;20222;-83
2022/03/11 02:07:12;;;;;;;6.30;4.70;;;;;13.50;101555.00;;;;5033842;28;20196;-82
2022/03/11 02:09:39;;;;;;;7.38;4.90;;;;;13.50;101555.00;;;;5030239;28;20873;-81
2022/03/11 02:12:07;;;;;;;6.50;4.32;;;;;13.50;101560.00;;;;5046005;28;20208;-81
2022/03/11 02:14:35;;;;;;;6.57;4.63;;;;;13.50;101551.00;;;;5047151;28;20195;-81
2022/03/11 02:17:03;;;;;;;6.07;4.22;;;;;13.50;101552.00;;;;5031143;28;20196;-81
2022/03/11 02:19:30;;;;;;;7.43;4.95;;;;;13.40;101551.00;;;;5047045;28;20227;-83
2022/03/11 02:22:00;;;;;;;8.07;4.97;;;;;13.40;101540.00;;;;5037170;28;20573;-84
2022/03/11 02:24:30;;;;;;;6.95;4.47;;;;;13.40;101534.00;;;;5035024;28;20219;-83
2022/03/11 02:26:58;;;;;;;6.47;4.35;;;;;13.40;101538.00;;;;5057435;28;20206;-84
2022/03/11 02:29:25;;;;;;;8.52;5.63;;;;;13.40;101531.00;;;;5037097;28;20604;-84
2022/03/11 02:31:52;;;;;;;7.45;4.55;;;;;13.40;101530.00;;;;5046953;28;20207;-83
2022/03/11 02:34:19;;;;;;;7.15;4.90;;;;;13.30;101525.00;;;;5038175;28;20193;-84
2022/03/11 02:36:47;;;;;;;8.82;5.28;;;;;13.30;101520.00;;;;5046571;28;20202;-84
2022/03/11 02:39:14;;;;;;;8.63;4.70;;;;;13.30;101526.00;;;;5042384;28;20191;-84
2022/03/11 02:41:45;;;;;;;8.52;4.75;;;;;13.30;101514.00;;;;5044647;28;20199;-84
2022/03/11 02:44:12;;;;;;;8.30;4.85;;;;;13.30;101517.00;;;;5027432;28;20212;-83
2022/03/11 02:46:40;;;;;;;10.43;5.72;;;;;13.30;101521.00;;;;5031696;28;20216;-84
2022/03/11 02:49:07;;;;;;;7.30;4.85;;;;;13.20;101518.00;;;;5046378;28;20195;-83
2022/03/11 02:51:34;;;;;;;8.25;5.03;;;;;13.20;101510.00;;;;5040953;28;20199;-83
2022/03/11 02:54:01;;;;;;;9.02;5.47;;;;;13.20;101520.00;;;;5044004;28;20204;-83
2022/03/11 02:56:28;;;;;;;7.25;5.25;;;;;13.20;101506.00;;;;5046809;28;20254;-83
2022/03/11 02:58:57;;;;;;;7.60;4.93;;;;;13.20;101507.00;;;;5038197;28;20278;-81
2022/03/11 03:01:24;;;;;;;7.68;4.85;;;;;13.20;101501.00;;;;5044867;28;20196;-82
2022/03/11 03:03:52;;;;;;;10.52;5.32;;;;;13.10;101508.00;;;;5033567;28;20216;-82
2022/03/11 03:06:19;;;;;;;7.13;4.53;;;;;13.10;101513.00;;;;5048674;28;20206;-83
2022/03/11 03:08:46;;;;;;;7.25;4.53;;;;;13.10;101510.00;;;;5041416;28;20196;-83
2022/03/11 03:11:13;;;;;;;7.47;4.43;;;;;13.10;101503.00;;;;5035703;28;20643;-82
2022/03/11 03:13:40;;;;;;;6.50;4.78;;;;;13.10;101506.00;;;;5050124;28;20204;-82
2022/03/11 03:16:09;;;;;;;9.60;5.65;;;;;13.00;101494.00;;;;5048142;28;20204;-83
2022/03/11 03:18:36;;;;;;;8.13;5.35;;;;;13.00;101498.00;;;;5050206;28;20200;-82
2022/03/11 03:21:04;;;;;;;7.90;4.82;;;;;13.00;101494.00;;;;5048152;28;20227;-82
2022/03/11 03:23:31;;;;;;;7.32;5.13;;;;;13.00;101493.00;;;;5048989;28;20657;-82
2022/03/11 03:26:00;;;;;;;7.07;4.97;;;;;13.00;101491.00;;;;5036507;28;20203;-82
2022/03/11 03:28:27;;;;;;;7.38;5.00;;;;;13.00;101484.00;;;;5046691;28;20265;-83
2022/03/11 03:30:54;;;;;;;9.70;5.30;;;;;12.90;101491.00;;;;5049828;28;20226;-82
2022/03/11 03:33:23;;;;;;;7.00;4.80;;;;;12.90;101492.00;;;;5048182;28;20196;-83
2022/03/11 03:35:50;;;;;;;7.95;5.22;;;;;12.90;101492.00;;;;5045752;28;20192;-83
2022/03/11 03:38:18;;;;;;;8.40;4.97;;;;;12.90;101486.00;;;;5046456;28;20210;-83
2022/03/11 03:40:45;;;;;;;6.88;4.72;;;;;12.90;101476.00;;;;5037153;28;20200;-83
2022/03/11 03:43:12;;;;;;;8.52;4.93;;;;;12.80;101485.00;;;;5037652;28;20199;-83
2022/03/11 03:45:40;;;;;;;8.38;4.90;;;;;12.80;101479.00;;;;5032075;28;20872;-83
2022/03/11 03:48:07;;;;;;;7.63;4.70;;;;;12.80;101486.00;;;;5031486;28;20193;-83
2022/03/11 03:50:36;;;;;;;7.22;4.78;;;;;12.80;101484.00;;;;5035814;28;20204;-82
2022/03/11 03:53:04;;;;;;;7.95;4.78;;;;;12.80;101478.00;;;;5041253;28;20283;-82
2022/03/11 03:55:31;;;;;;;8.38;5.30;;;;;12.70;101482.00;;;;5048430;28;20204;-83
2022/03/11 03:57:58;;;;;;;7.18;4.40;;;;;12.70;101478.00;;;;5047628;28;20606;-82
2022/03/11 04:00:25;;;;;;;7.20;4.75;;;;;12.70;101483.00;;;;5042697;28;20258;-83
2022/03/11 04:02:53;;;;;;;6.68;4.43;;;;;12.70;101483.00;;;;5047990;28;20191;-82
2022/03/11 04:05:21;;;;;;;8.50;4.70;;;;;12.70;101483.00;;;;5046110;28;20231;-82
2022/03/11 04:07:50;;;;;;;7.85;4.78;;;;;12.60;101487.00;;;;5029824;28;20201;-83
2022/03/11 04:10:18;;;;;;;8.68;4.85;;;;;12.60;101466.00;;;;5038212;28;20200;-82
2022/03/11 04:12:46;;;;;;;7.57;4.65;;;;;12.60;101476.00;;;;5037076;28;21007;-82
2022/03/11 04:15:13;;;;;;;8.05;4.95;;;;;12.60;101470.00;;;;5036021;28;20207;-83
2022/03/11 04:17:40;;;;;;;8.43;4.82;;;;;12.60;101476.00;;;;5047347;28;20196;-83
2022/03/11 04:20:09;;;;;;;5.97;4.35;;;;;12.50;101472.00;;;;5044298;28;20327;-82
2022/03/11 04:22:41;;;;;;;6.55;4.88;;;;;12.50;101462.00;;;;5052679;28;20610;-82
2022/03/11 04:25:11;;;;;;;8.40;5.50;;;;;12.50;101468.00;;;;5039104;28;20825;-83
2022/03/11 04:27:39;;;;;;;7.30;4.53;;;;;12.50;101462.00;;;;5048908;28;20203;-82
2022/03/11 04:30:08;;;;;;;6.63;4.95;;;;;12.40;101464.00;;;;5046900;28;20196;-83
2022/03/11 04:32:35;;;;;;;8.18;4.55;;;;;12.40;101459.00;;;;5053767;28;20615;-83
2022/03/11 04:35:03;;;;;;;10.52;5.57;;;;;12.40;101457.00;;;;5029247;28;20196;-82
2022/03/11 04:37:30;;;;;;;8.10;5.45;;;;;12.40;101456.00;;;;5044658;28;20196;-82
2022/03/11 04:39:58;;;;;;;8.05;4.93;;;;;12.40;101458.00;;;;5050668;28;20596;-83
2022/03/11 04:42:26;;;;;;;8.85;5.10;;;;;12.40;101458.00;;;;5038464;28;20315;-82
2022/03/11 04:44:54;;;;;;;7.70;4.20;;;;;12.40;101461.00;;;;5045633;28;20230;-83
2022/03/11 04:47:21;;;;;;;8.02;4.88;;;;;12.30;101456.00;;;;5046257;28;20245;-83
2022/03/11 04:49:48;;;;;;;6.78;4.97;;;;;12.30;101461.00;;;;5047322;28;20204;-83
2022/03/11 04:52:15;;;;;;;7.25;4.90;;;;;12.30;101459.00;;;;5050190;28;20253;-82
2022/03/11 04:54:43;;;;;;;7.68;5.35;;;;;12.30;101454.00;;;;5048850;28;20199;-82
2022/03/11 04:57:10;;;;;;;7.07;4.90;;;;;12.30;101456.00;;;;5037678;28;21026;-82
2022/03/11 04:59:38;;;;;;;6.72;4.60;;;;;12.20;101456.00;;;;5034156;28;20195;-83
2022/03/11 05:02:06;;;;;;;6.32;4.32;;;;;12.20;101456.00;;;;5038498;28;20204;-82
2022/03/11 05:04:34;;;;;;;8.32;4.95;;;;;12.20;101450.00;;;;5047996;28;20310;-83
2022/03/11 05:07:01;;;;;;;7.03;4.75;;;;;12.20;101446.00;;;;5047564;28;20207;-82
2022/03/11 05:09:28;;;;;;;8.68;5.15;;;;;12.10;101451.00;;;;5044406;28;20201;-83
2022/03/11 05:11:55;;;;;;;9.73;4.75;;;;;12.10;101441.00;;;;5043568;28;20208;-81
2022/03/11 05:14:22;;;;;;;7.75;4.68;;;;;12.10;101439.00;;;;5040513;28;20188;-83
2022/03/11 05:16:51;;;;;;;8.40;5.22;;;;;12.00;101441.00;;;;5045375;28;20566;-82
2022/03/11 05:19:18;;;;;;;7.75;4.47;;;;;12.00;101433.00;;;;5029342;28;20737;-83
2022/03/11 05:21:45;;;;;;;7.72;5.20;;;;;12.00;101434.00;;;;5046137;28;20206;-83
2022/03/11 05:24:13;;;;;;;8.32;5.22;;;;;12.00;101425.00;;;;5047656;28;20198;-82
2022/03/11 05:26:41;;;;;;;7.18;5.03;;;;;12.00;101427.00;;;;5048036;28;20222;-83
2022/03/11 05:29:09;;;;;;;6.40;4.55;;;;;12.00;101426.00;;;;5046634;28;20195;-82
2022/03/11 05:31:36;;;;;;;7.80;5.13;;;;;12.00;101433.00;;;;5042892;28;20196;-82
2022/03/11 05:34:04;;;;;;;6.97;4.30;;;;;11.90;101429.00;;;;5044901;28;20195;-83
2022/03/11 05:36:32;;;;;;;8.25;4.95;;;;;11.90;101426.00;;;;5042710;28;20204;-83
2022/03/11 05:38:59;;;;;;;6.90;4.68;;;;;11.90;101430.00;;;;5040106;28;20203;-82
2022/03/11 05:41:27;;;;;;;7.50;4.95;;;;;11.90;101433.00;;;;5037787;28;20207;-85
2022/03/11 05:43:54;;;;;;;9.00;5.68;;;;;11.80;101430.00;;;;5048684;28;20662;-82
2022/03/11 05:46:21;;;;;;;7.75;4.97;;;;;11.80;101422.00;;;;5045811;28;20223;-81
2022/03/11 05:48:49;;;;;;;10.93;5.38;;;;;11.80;101412.00;;;;5045696;28;20203;-82
2022/03/11 05:51:17;;;;;;;6.35;4.60;;;;;11.80;101408.00;;;;5033915;28;20188;-82
2022/03/11 05:53:44;;;;;;;7.60;4.78;;;;;11.80;101413.00;;;;5041476;28;20208;-81
2022/03/11 05:56:11;;;;;;;8.82;5.53;;;;;11.80;101405.00;;;;5044037;28;20546;-82
2022/03/11 05:58:39;;;;;;;8.38;5.35;;;;;11.80;101409.00;;;;5039933;28;20223;-80
2022/03/11 06:01:06;;;;;;;6.13;4.32;;;;;11.70;101412.00;;;;5044517;28;20199;-81
2022/03/11 06:03:33;;;;;;;8.70;5.28;;;;;11.70;101414.00;;;;5044526;28;20200;-81
2022/03/11 06:06:00;;;;;;;7.47;4.97;;;;;11.70;101415.00;;;;5043525;28;20223;-82
2022/03/11 06:08:29;;;;;;;7.40;5.05;;;;;11.70;101413.00;;;;5044808;28;20200;-82
2022/03/11 06:10:56;;;;;;;6.85;4.75;;;;;11.70;101417.00;;;;5045112;28;20261;-82
2022/03/11 06:13:23;;;;;;;7.15;4.70;;;;;11.70;101415.00;;;;5029707;28;20209;-82
2022/03/11 06:15:51;;;;;;;10.35;5.30;;;;;11.70;101398.00;;;;5043585;28;20608;-82
2022/03/11 06:18:18;;;;;;;6.85;5.10;;;;;11.70;101404.00;;;;5049446;28;20192;-83
2022/03/11 06:20:46;;;;;;;9.15;5.38;;;;;11.70;101411.00;;;;5045655;28;20640;-83
2022/03/11 06:23:14;;;;;;;5.90;4.20;;;;;11.70;101396.00;;;;5034844;28;20680;-84
2022/03/11 06:25:43;;;;;;;6.80;4.78;;;;;11.70;101409.00;;;;5047767;28;20232;-82
2022/03/11 06:28:10;;;;;;;6.75;4.78;;;;;11.70;101405.00;;;;5047025;28;20302;-81
2022/03/11 06:30:39;;;;;;;9.50;5.03;;;;;11.70;101404.00;;;;5048226;28;20192;-83
2022/03/11 06:33:07;;;;;;;7.47;5.20;;;;;11.70;101411.00;;;;5041652;28;20199;-82
2022/03/11 06:35:35;;;;;;;8.02;5.05;;;;;11.70;101406.00;;;;5055290;28;20690;-81
2022/03/11 06:38:02;;;;;;;9.18;5.45;;;;;11.70;101413.00;;;;5043612;28;20204;-82
2022/03/11 06:40:29;;;;;;;8.07;4.78;;;;;11.70;101419.00;;;;5048584;28;20576;-81
2022/03/11 06:42:58;;;;;;;7.68;5.55;;;;;11.70;101415.00;;;;5050581;28;20373;-82
2022/03/11 06:45:25;;;;;;;7.50;4.65;;;;;11.80;101415.00;;;;5035144;28;20220;-82
2022/03/11 06:47:52;;;;;;;8.43;5.20;;;;;11.80;101417.00;;;;5035121;28;20188;-82
2022/03/11 06:50:20;;;;;;;8.40;4.68;;;;;11.80;101416.00;;;;5037333;28;20950;-82
2022/03/11 06:52:47;;;;;;;8.38;4.88;;;;;11.80;101414.00;;;;5053968;28;20286;-81
2022/03/11 06:55:15;;;;;;;9.48;4.78;;;;;11.80;101418.00;;;;5054478;28;20198;-80
2022/03/11 06:57:44;;;;;;;6.18;4.47;;;;;11.90;101421.00;;;;5040685;28;20235;-79
2022/03/11 07:00:14;;;;;;;7.45;4.60;;;;;11.90;101414.00;;;;5045606;28;20841;-78
2022/03/11 07:02:42;;;;;;;7.97;5.22;;;;;11.90;101411.00;;;;5047294;28;20199;-80
2022/03/11 07:05:10;;;;;;;7.53;4.65;;;;;12.00;101410.00;;;;5050724;28;20223;-80
2022/03/11 07:07:37;;;;;;;6.03;4.65;;;;;12.00;101410.00;;;;5049682;28;20274;-80
2022/03/11 07:10:09;;;;;;;7.95;5.00;;;;;12.00;101414.00;;;;5041200;28;20230;-80
2022/03/11 07:12:37;;;;;;;8.55;5.70;;;;;12.10;101401.00;;;;5032203;28;20197;-79
2022/03/11 07:15:06;;;;;;;8.65;5.85;;;;;12.10;101394.00;;;;5046820;28;20190;-80
2022/03/11 07:17:35;;;;;;;8.85;5.43;;;;;12.20;101403.00;;;;5070101;28;20714;-79
2022/03/11 07:20:04;;;;;;;19.65;5.68;;;;;12.20;101406.00;;;;5058774;28;20227;-80
2022/03/11 07:22:32;;;;;;;6.60;4.70;;;;;12.30;101402.00;;;;5050022;28;20231;-79
2022/03/11 07:25:00;;;;;;;7.38;4.57;;;;;12.30;101402.00;;;;5030776;28;20238;-79
2022/03/11 07:27:27;;;;;;;8.20;4.97;;;;;12.40;101406.00;;;;5030947;28;20658;-79
2022/03/11 07:29:56;;;;;;;7.07;5.28;;;;;12.40;101403.00;;;;5031205;28;20597;-79
2022/03/11 07:32:23;;;;;;;8.63;5.65;;;;;12.50;101404.00;;;;5029978;28;20733;-79
2022/03/11 07:34:52;;;;;;;9.07;5.47;;;;;12.50;101405.00;;;;5031301;28;20200;-80
2022/03/11 07:37:21;;;;;;;8.23;5.65;;;;;12.60;101400.00;;;;5045162;28;20204;-79
2022/03/11 07:39:48;;;;;;;6.13;4.60;;;;;12.60;101405.00;;;;5040532;28;20200;-79
2022/03/11 07:42:15;;;;;;;8.98;6.05;;;;;12.70;101395.00;;;;5030056;28;20196;-80
2022/03/11 07:44:44;;;;;;;7.88;5.25;;;;;12.80;101401.00;;;;5042038;28;20196;-79
2022/03/11 07:47:11;;;;;;;7.95;5.03;;;;;12.80;101404.00;;;;5048596;28;20230;-80
2022/03/11 07:49:38;;;;;;;6.93;5.18;;;;;12.90;101393.00;;;;5050069;28;20207;-80
2022/03/11 07:52:14;;;;;;;7.35;5.28;;;;;13.00;101399.00;;;;5049202;28;20203;-80
2022/03/11 07:54:42;;;;;;;10.10;5.60;;;;;13.10;101394.00;;;;5050126;28;20733;-79
2022/03/11 07:57:09;;;;;;;11.60;5.75;;;;;13.10;101396.00;;;;5050102;28;20238;-79
2022/03/11 07:59:37;;;;;;;11.40;5.68;;;;;13.20;101380.00;;;;5050975;28;20290;-79
2022/03/11 08:02:04;;;;;;;9.60;5.85;;;;;13.20;101391.00;;;;5049816;28;20211;-80
2022/03/11 08:04:32;;;;;;;9.40;5.78;;;;;13.30;101383.00;;;;5050300;28;20219;-80
2022/03/11 08:07:05;;;;;;;8.70;6.03;;;;;13.30;101381.00;;;;5050045;28;20223;-80
2022/03/11 08:09:34;;;;;;;8.70;5.57;;;;;13.40;101384.00;;;;5049471;28;20200;-80
2022/03/11 08:12:01;;;;;;;9.57;6.50;;;;;13.40;101380.00;;;;5049913;28;20207;-79
2022/03/11 08:14:28;;;;;;;12.57;6.95;;;;;13.50;101378.00;;;;5067084;28;20206;-80
2022/03/11 08:16:55;;;;;;;8.27;5.90;;;;;13.60;101378.00;;;;5069276;28;20210;-79
2022/03/11 08:19:23;;;;;;;8.25;6.03;;;;;13.60;101383.00;;;;5059351;28;20223;-79
2022/03/11 08:21:51;;;;;;;12.00;6.35;;;;;13.70;101378.00;;;;5045662;28;20298;-80
2022/03/11 08:24:19;;;;;;;10.05;6.00;;;;;13.70;101380.00;;;;5041978;28;20202;-81
2022/03/11 08:26:48;;;;;;;9.57;6.25;;;;;13.80;101377.00;;;;5049615;28;20265;-80
2022/03/11 08:29:16;;;;;;;11.90;7.75;;;;;13.90;101372.00;;;;5049624;28;20261;-81
2022/03/11 08:31:44;;;;;;;8.80;6.00;;;;;13.90;101378.00;;;;5048935;28;20199;-81
2022/03/11 08:34:11;;;;;;;11.55;6.72;;;;;14.00;101363.00;;;;5049104;28;20200;-81
2022/03/11 08:36:39;;;;;;;9.38;6.38;;;;;14.00;101361.00;;;;5039066;28;20203;-81
2022/03/11 08:39:07;;;;;;;9.07;6.57;;;;;14.10;101361.00;;;;5039064;28;20606;-81
2022/03/11 08:41:34;;;;;;;11.93;7.32;;;;;14.10;101348.00;;;;5030164;28;20200;-81
2022/03/11 08:44:05;;;;;;;9.63;6.13;;;;;14.20;101350.00;;;;5032876;28;20601;-80
2022/03/11 08:46:32;;;;;;;8.23;6.20;;;;;14.30;101346.00;;;;5047965;28;20227;-80
2022/03/11 08:49:00;;;;;;;7.72;5.97;;;;;14.30;101344.00;;;;5046194;28;20196;-81
2022/03/11 08:51:27;;;;;;;7.70;5.65;;;;;14.40;101343.00;;;;5064278;28;21008;-81
2022/03/11 08:53:54;;;;;;;10.40;6.55;;;;;14.50;101340.00;;;;5064941;28;20191;-82
2022/03/11 08:56:22;;;;;;;12.25;6.07;;;;;14.50;101332.00;;;;5038299;28;20196;-83
2022/03/11 08:58:50;;;;;;;9.32;6.43;;;;;14.60;101329.00;;;;5047176;28;20250;-81
2022/03/11 09:01:19;;;;;;;8.57;6.20;;;;;14.60;101329.00;;;;5037595;28;20214;-81
2022/03/11 09:03:46;;;;;;;7.85;6.15;;;;;14.70;101331.00;;;;5028609;28;20200;-80
2022/03/11 09:06:13;;;;;;;9.65;5.85;;;;;14.80;101338.00;;;;5027963;28;20228;-81
2022/03/11 09:08:40;;;;;;;13.80;7.25;;;;;14.90;101347.00;;;;5036908;28;20223;-81
2022/03/11 09:11:07;;;;;;;8.40;6.50;;;;;15.00;101345.00;;;;5036614;28;20253;-81
2022/03/11 09:13:35;;;;;;;8.40;6.15;;;;;15.00;101335.00;;;;5048006;28;20211;-80
2022/03/11 09:16:03;;;;;;;9.85;6.22;;;;;15.10;101337.00;;;;5042023;28;20628;-80
2022/03/11 09:18:32;;;;;;;9.35;6.45;;;;;15.20;101336.00;;;;5035079;28;20207;-81
2022/03/11 09:21:01;;;;;;;10.43;6.47;;;;;15.30;101342.00;;;;5038829;28;20228;-81
2022/03/11 09:23:28;;;;;;;9.57;5.95;;;;;15.40;101336.00;;;;5037848;28;20570;-80
2022/03/11 09:25:56;;;;;;;11.38;6.43;;;;;15.50;101336.00;;;;5041147;28;20294;-80
2022/03/11 09:28:23;;;;;;;12.30;6.78;;;;;15.50;101335.00;;;;5048397;28;20286;-80
2022/03/11 09:30:50;;;;;;;9.18;6.50;;;;;15.60;101336.00;;;;5040891;28;20574;-81
2022/03/11 09:33:18;;;;;;;11.00;6.97;;;;;15.70;101332.00;;;;5035704;28;20189;-81
2022/03/11 09:35:47;;;;;;;9.75;6.82;;;;;15.80;101333.00;;;;5045580;28;20208;-79
2022/03/11 09:38:14;;;;;;;11.20;6.68;;;;;15.80;101320.00;;;;5043303;28;20203;-80
2022/03/11 09:40:43;;;;;;;8.25;5.95;;;;;15.90;101319.00;;;;5047863;28;20230;-79
2022/03/11 09:43:12;;;;;;;9.25;7.05;;;;;16.00;101313.00;;;;5040572;28;20216;-80
2022/03/11 09:45:40;;;;;;;9.48;7.20;;;;;16.10;101312.00;;;;5032870;28;20197;-80
2022/03/11 09:48:08;;;;;;;9.45;6.63;;;;;16.10;101304.00;;;;5031655;28;20211;-80
2022/03/11 09:50:36;;;;;;;11.40;6.43;;;;;16.20;101306.00;;;;5027882;28;20210;-80
2022/03/11 09:53:05;;;;;;;9.43;6.22;;;;;16.30;101308.00;;;;5038898;28;20204;-80
2022/03/11 09:55:32;;;;;;;12.13;7.47;;;;;16.30;101310.00;;;;5048466;28;20567;-80
2022/03/11 09:57:59;;;;;;;8.88;6.93;;;;;16.40;101312.00;;;;5047827;28;20581;-81
2022/03/11 10:00:28;;;;;;;11.20;7.50;;;;;16.50;101306.00;;;;5047291;28;20207;-80
2022/03/11 10:02:55;;;;;;;9.02;5.93;;;;;16.60;101301.00;;;;5047998;28;20200;-81
2022/03/11 10:05:24;;;;;;;10.45;7.25;;;;;16.60;101297.00;;;;5047162;28;20289;-80
2022/03/11 10:08:01;;;;;;;9.13;6.68;;;;;16.70;101287.00;;;;5047671;28;20230;-80
2022/03/11 10:10:30;;;;;;;12.60;7.57;;;;;16.80;101282.00;;;;5047640;28;20304;-81
2022/03/11 10:12:58;;;;;;;9.57;6.47;;;;;16.90;101287.00;;;;5051828;28;20677;-81
2022/03/11 10:15:29;;;;;;;9.45;7.05;;;;;17.00;101277.00;;;;5051421;28;20570;-81
2022/03/11 10:17:57;;;;;;;10.02;7.03;;;;;17.10;101283.00;;;;5051979;28;20203;-81
2022/03/11 10:20:25;;;;;;;10.90;7.75;;;;;17.10;101270.00;;;;5051918;28;20238;-80
2022/03/11 10:22:52;;;;;;;9.35;6.68;;;;;17.20;101282.00;;;;5050169;28;20289;-80
2022/03/11 10:25:25;;;;;;;11.48;7.68;;;;;17.30;101278.00;;;;5031664;28;20204;-80
2022/03/11 10:27:58;;;;;;;15.52;7.18;;;;;17.30;101282.00;;;;5049925;28;20231;-81
2022/03/11 10:30:27;;;;;;;11.20;7.25;;;;;17.40;101274.00;;;;5052238;28;20219;-81
2022/03/11 10:32:54;;;;;;;10.50;6.80;;;;;17.50;101277.00;;;;5051876;28;20195;-80
2022/03/11 10:35:30;;;;;;;13.20;6.72;;;;;17.60;101267.00;;;;5052113;28;20214;-80
2022/03/11 10:37:59;;;;;;;10.40;6.65;;;;;17.70;101268.00;;;;5051121;28;20217;-79
2022/03/11 10:40:27;;;;;;;9.80;6.95;;;;;17.70;101259.00;;;;5047188;28;20327;-80
2022/03/11 10:45:52;;;;;;;9.98;6.95;;;;;17.90;101252.00;;;;5078953;28;20616;-79
2022/03/11 10:48:41;;;;;;;10.35;7.57;;;;;18.00;101244.00;;;;5067793;28;20207;-79
2022/03/11 10:51:12;;;;;;;10.32;7.32;;;;;18.10;101246.00;;;;5055651;28;20305;-78
2022/03/11 10:53:40;;;;;;;8.43;6.55;;;;;18.20;101244.00;;;;5044772;28;20192;-79
2022/03/11 10:56:08;;;;;;;14.77;8.75;;;;;18.30;101252.00;;;;5045316;28;20203;-79
2022/03/11 10:58:36;;;;;;;10.50;7.30;;;;;18.40;101243.00;;;;5044714;28;20219;-79
2022/03/11 11:01:06;;;;;;;12.02;7.63;;;;;18.40;101242.00;;;;5048754;28;20198;-79
2022/03/11 11:03:34;;;;;;;10.27;7.38;;;;;18.60;101246.00;;;;5063929;28;20191;-80
2022/03/11 11:06:02;;;;;;;12.73;8.02;;;;;18.60;101244.00;;;;5045925;28;20199;-80
2022/03/11 11:08:29;;;;;;;12.40;8.90;;;;;18.70;101241.00;;;;5044808;28;20556;-80
2022/03/11 11:10:57;;;;;;;10.88;7.57;;;;;18.70;101247.00;;;;5064283;28;20195;-81
2022/03/11 11:13:25;;;;;;;11.15;8.02;;;;;18.80;101250.00;;;;5060501;28;20204;-81
2022/03/11 11:15:55;;;;;;;9.07;7.18;;;;;18.90;101247.00;;;;5064480;28;20206;-80
2022/03/11 11:18:28;;;;;;;13.50;8.57;;;;;19.00;101249.00;;;;5045917;28;20207;-81
2022/03/11 11:20:56;;;;;;;10.90;7.72;;;;;19.00;101238.00;;;;5046365;28;20219;-81
2022/03/11 11:23:26;;;;;;;11.40;7.30;;;;;19.10;101231.00;;;;5063557;28;20209;-81
2022/03/11 11:25:53;;;;;;;10.63;7.75;;;;;19.20;101223.00;;;;5061395;28;20557;-80
2022/03/11 11:28:26;;;;;;;10.80;7.75;;;;;19.20;101219.00;;;;5048999;28;20201;-81
2022/03/11 11:30:55;;;;;;;8.85;6.88;;;;;19.30;101220.00;;;;5043996;28;20200;-80
2022/03/11 11:33:24;;;;;;;11.27;7.07;;;;;19.40;101213.00;;;;5044438;28;20200;-79
2022/03/11 11:35:57;;;;;;;9.75;7.53;;;;;19.50;101213.00;;;;5060838;28;20211;-79
2022/03/11 11:38:37;;;;;;;10.68;8.13;;;;;19.50;101212.00;;;;5048849;28;20192;-79
2022/03/11 11:41:21;;;;;;;10.65;7.53;;;;;19.60;101202.00;;;;5043266;28;20200;-79
2022/03/11 11:43:54;;;;;;;10.10;6.85;;;;;19.70;101205.00;;;;5052914;28;20225;-79
2022/03/11 11:46:22;;;;;;;13.25;8.68;;;;;19.80;101197.00;;;;5084189;28;20297;-79
2022/03/11 11:49:05;;;;;;;14.93;8.38;;;;;19.80;101194.00;;;;5084856;28;20206;-79
2022/03/11 11:51:54;;;;;;;11.60;8.70;;;;;19.80;101191.00;;;;5070391;28;20575;-79
2022/03/11 11:54:35;;;;;;;11.57;7.32;;;;;19.90;101190.00;;;;5068937;28;20198;-79
2022/03/11 11:57:02;;;;;;;10.98;6.88;;;;;20.00;101186.00;;;;5071739;28;20195;-77
2022/03/11 11:59:32;;;;;;;10.70;8.07;;;;;20.10;101184.00;;;;5070396;28;20215;-77
2022/03/11 12:02:01;;;;;;;12.10;8.63;;;;;20.10;101178.00;;;;5070997;28;20199;-78
2022/03/11 12:04:33;;;;;;;10.90;7.05;;;;;20.20;101170.00;;;;5071104;28;20231;-79
2022/03/11 12:07:02;;;;;;;17.70;8.38;;;;;20.30;101164.00;;;;5070775;28;20198;-77
2022/03/11 12:09:47;;;;;;;11.07;8.32;;;;;20.20;101164.00;;;;5054958;28;20211;-78
2022/03/11 12:12:48;;;;;;;12.27;8.98;;;;;20.20;101151.00;;;;5049880;28;20286;-79
2022/03/11 12:15:17;;;;;;;12.32;8.90;;;;;20.40;101158.00;;;;5053768;28;20598;-78